CYUX

Hall Beach Airport

Hall Beach, Canada
METAR CYUX 162200Z 33012KT 6SM IC DRSN FEW005 M38/M42 A2971 RMK SF1 SF TR VIS LWR N SLP065
Observed Flight Rules
Jan-16 @ 22:00 UTC (43 minutes ago) Visual Flight Rules
Wind Visibility Clouds Conditions
330° at 12 knots 6 miles
  • Few at 500' AGL
  • Ice crystals
  • Low drifting
  • Snow
Temperatures Readings
Current -38°C / -36°F
Dewpoint -42°C / -44°F
Humidity 66%
Altimeter 29.71" Hg
Pressure 1006.5 hPa
Elevation 8
METAR CYUX 162200Z 33012KT 6SM IC DRSN FEW005 M38/M42 A2971 RMK SF1 SF TR VIS LWR N SLP065
Observed Flight Rules
Jan-16 @ 22:00 UTC
(43 minutes ago)
VFR
Wind Visibility
330° at 12 knots 6 miles
Clouds
  • Few at 500' AGL
Conditions
  • Ice crystals
  • Low drifting
  • Snow
Temperature Dewpoint
-38°C / -36°F -42°C / -44°F
Humidity Altimeter Pressure
66% 29.71" Hg 1006.5 hPa